Observations for LAMPEDUSA ISLAND, Italy (LICD)

LICD 181450Z 13011KT CAVOK 18/14 Q1019  
LICD 181350Z 13011KT 9999 FEW015 18/14 Q1019
LICD 181250Z 13011KT 9999 FEW020 18/14 Q1020
LICD 181150Z 13010KT 9999 FEW020 18/14 Q1020
LICD 181050Z 13010KT 9999 FEW020 18/14 Q1020
LICD 180950Z 13011KT 9999 FEW020 18/14 Q1021
LICD 180850Z 13010KT 9999 FEW020 17/14 Q1020
LICD 180750Z 14009KT 9999 SCT020 16/13 Q1020
LICD 180650Z 13008KT 9999 FEW020 16/13 Q1020
LICD 180550Z 12009KT 9999 FEW020 16/13 Q1019
LICD 180450Z 14009KT 9999 SCT020 15/13 Q1019
LICD 180350Z AUTO 12008KT 9999 FEW013/// 15/13 Q1019
LICD 180350Z AUTO 12008KT 9999 FEW013 15/13 Q1019
LICD 180250Z AUTO 11008KT 9999 FEW012/// 15/13 Q1019
LICD 180250Z AUTO 11008KT 9999 FEW012 15/13 Q1019
LICD 180220Z AUTO 10008KT 9999 FEW012/// 15/13 Q1019
LICD 180150Z AUTO 13007KT 9999 BKN012/// 15/13 Q1019
LICD 180150Z AUTO 13007KT 9999 BKN012 15/13 Q1019
LICD 180050Z AUTO 12007KT 9999 FEW010/// 15/14 Q1019
LICD 180050Z AUTO 12007KT 9999 FEW010 15/14 Q1019
LICD 172350Z AUTO 12006KT 9999 NCD 15/14 Q1020  
LICD 172250Z AUTO 11006KT 9999 NCD 15/14 Q1020  
LICD 172150Z AUTO 12006KT 9999 NCD 15/14 Q1020  
LICD 172050Z AUTO 12005KT 9999 NCD 15/14 Q1020  
LICD 171950Z 12006KT CAVOK 16/14 Q1020  
LICD 171750Z 12004KT CAVOK 16/13 Q1019  
LICD 171650Z 11005KT CAVOK 17/13 Q1019  
LICD 171550Z 12005KT CAVOK 17/14 Q1019  
LICD 171450Z 12005KT CAVOK 18/14 Q1019